Time;durP1;ratioP1;P1;durP2;ratioP2;P2;SDS_P1;SDS_P2;PMS_P1;PMS_P2;Temp;Humidity;BMP_temperature;BMP_pressure;BME280_temperature;BME280_humidity;BME280_pressure;Samples;Min_cycle;Max_cycle;Signal;HPM_P1;HPM_P2
2021/04/18 00:00:27;;;;;;;14.07;11.67;;;;;;;;;;2100593;28;20207;-52
2021/04/18 00:01:27;;;;;;;12.37;10.03;;;;;;;;;;2098700;28;20198;-52
2021/04/18 00:02:28;;;;;;;12.23;9.75;;;;;;;;;;2097182;28;20207;-51
2021/04/18 00:03:28;;;;;;;15.23;10.03;;;;;;;;;;2095289;28;20188;-54
2021/04/18 00:04:28;;;;;;;12.13;10.83;;;;;;;;;;2098617;28;20178;-54
2021/04/18 00:05:29;;;;;;;12.20;10.90;;;;;;;;;;2088709;28;20665;-53
2021/04/18 00:06:29;;;;;;;14.63;10.60;;;;;;;;;;2097753;28;20232;-53
2021/04/18 00:07:30;;;;;;;13.73;10.60;;;;;;;;;;2100048;28;20262;-50
2021/04/18 00:08:30;;;;;;;12.07;10.37;;;;;;;;;;2096263;28;20211;-53
2021/04/18 00:09:30;;;;;;;11.37;10.20;;;;;;;;;;2099113;28;20171;-52
2021/04/18 00:10:32;;;;;;;15.03;9.77;;;;;;;;;;2099688;28;20211;-57
2021/04/18 00:11:32;;;;;;;15.07;10.70;;;;;;;;;;2094234;28;20183;-52
2021/04/18 00:12:32;;;;;;;13.33;10.43;;;;;;;;;;2099556;28;20171;-57
2021/04/18 00:13:33;;;;;;;14.57;10.05;;;;;;;;;;2097868;28;20209;-52
2021/04/18 00:14:33;;;;;;;13.20;10.43;;;;;;;;;;2096306;28;20182;-55
2021/04/18 00:15:34;;;;;;;13.77;11.07;;;;;;;;;;2099127;28;20187;-54
2021/04/18 00:16:35;;;;;;;12.53;10.20;;;;;;;;;;2093959;28;20183;-52
2021/04/18 00:17:35;;;;;;;14.53;10.60;;;;;;;;;;2098005;28;20705;-54
2021/04/18 00:18:35;;;;;;;15.43;11.10;;;;;;;;;;2093932;28;20199;-55
2021/04/18 00:19:36;;;;;;;13.03;10.27;;;;;;;;;;2096536;28;20254;-53
2021/04/18 00:20:36;;;;;;;14.10;10.03;;;;;;;;;;2096802;28;20194;-52
2021/04/18 00:21:37;;;;;;;10.55;9.55;;;;;;;;;;2097132;28;20182;-53
2021/04/18 00:22:41;;;;;;;11.67;9.77;;;;;;;;;;2097368;28;20635;-53
2021/04/18 00:23:41;;;;;;;15.73;10.13;;;;;;;;;;2098090;28;20182;-52
2021/04/18 00:24:41;;;;;;;14.87;10.13;;;;;;;;;;2095266;28;20197;-53
2021/04/18 00:25:41;;;;;;;11.10;10.00;;;;;;;;;;2096685;28;20171;-56
2021/04/18 00:26:42;;;;;;;12.20;10.23;;;;;;;;;;2098535;28;20710;-55
2021/04/18 00:27:43;;;;;;;12.07;10.87;;;;;;;;;;2095395;28;20201;-56
2021/04/18 00:28:43;;;;;;;15.40;10.57;;;;;;;;;;2097952;28;20675;-53
2021/04/18 00:29:43;;;;;;;14.93;10.67;;;;;;;;;;2093968;28;20203;-51
2021/04/18 00:30:44;;;;;;;14.13;10.80;;;;;;;;;;2096418;28;20671;-52
2021/04/18 00:31:44;;;;;;;17.50;11.17;;;;;;;;;;2097307;28;20609;-56
2021/04/18 00:32:44;;;;;;;12.07;9.90;;;;;;;;;;2097398;28;20257;-53
2021/04/18 00:33:45;;;;;;;13.43;9.97;;;;;;;;;;2096819;28;20175;-52
2021/04/18 00:34:45;;;;;;;16.07;10.67;;;;;;;;;;2094749;28;20198;-52
2021/04/18 00:35:45;;;;;;;13.90;10.33;;;;;;;;;;2097120;28;20171;-51
2021/04/18 00:36:46;;;;;;;15.03;10.57;;;;;;;;;;2095853;28;20666;-53
2021/04/18 00:37:46;;;;;;;13.53;10.93;;;;;;;;;;2094066;28;20183;-52
2021/04/18 00:38:47;;;;;;;15.30;10.83;;;;;;;;;;2096939;28;20687;-53
2021/04/18 00:39:47;;;;;;;15.80;10.20;;;;;;;;;;2093716;28;20187;-54
2021/04/18 00:40:47;;;;;;;13.43;10.07;;;;;;;;;;2098269;28;20560;-53
2021/04/18 00:41:47;;;;;;;10.83;9.63;;;;;;;;;;2088096;28;20174;-55
2021/04/18 00:42:48;;;;;;;12.83;10.17;;;;;;;;;;2097161;28;20183;-53
2021/04/18 00:43:49;;;;;;;10.87;9.77;;;;;;;;;;2095392;28;20175;-56
2021/04/18 00:44:49;;;;;;;13.53;9.73;;;;;;;;;;2094493;28;20215;-56
2021/04/18 00:45:49;;;;;;;12.27;10.27;;;;;;;;;;2095297;28;20178;-55
2021/04/18 00:46:49;;;;;;;14.17;10.20;;;;;;;;;;2097787;28;20171;-53
2021/04/18 00:47:51;;;;;;;14.20;9.67;;;;;;;;;;2095643;28;20647;-56
2021/04/18 00:48:51;;;;;;;12.60;10.23;;;;;;;;;;2097469;28;20218;-56
2021/04/18 00:49:51;;;;;;;12.13;10.23;;;;;;;;;;2103942;28;20522;-55
2021/04/18 00:50:51;;;;;;;12.47;10.27;;;;;;;;;;2097377;28;20179;-55
2021/04/18 00:51:52;;;;;;;13.47;9.97;;;;;;;;;;2097820;28;20237;-58
2021/04/18 00:52:52;;;;;;;13.60;10.60;;;;;;;;;;2094965;28;20274;-54
2021/04/18 00:53:53;;;;;;;12.53;10.70;;;;;;;;;;2097848;28;20206;-52
2021/04/18 00:54:53;;;;;;;11.73;10.33;;;;;;;;;;2090045;28;20171;-53
2021/04/18 00:55:53;;;;;;;10.97;9.83;;;;;;;;;;2093447;28;20927;-56
2021/04/18 00:56:53;;;;;;;17.03;10.33;;;;;;;;;;2093457;28;20188;-56
2021/04/18 00:57:54;;;;;;;12.10;9.67;;;;;;;;;;2096709;28;20546;-54
2021/04/18 00:58:55;;;;;;;20.80;11.47;;;;;;;;;;2096687;28;20175;-53
2021/04/18 00:59:57;;;;;;;12.67;9.93;;;;;;;;;;2096484;28;20170;-52
2021/04/18 01:00:57;;;;;;;13.17;9.43;;;;;;;;;;2090678;28;20616;-56
2021/04/18 01:01:57;;;;;;;15.00;10.03;;;;;;;;;;2088570;28;20179;-54
2021/04/18 01:02:58;;;;;;;13.17;10.00;;;;;;;;;;2097158;28;20662;-55
2021/04/18 01:03:58;;;;;;;13.07;10.80;;;;;;;;;;2097221;28;20592;-54
2021/04/18 01:04:58;;;;;;;12.93;9.90;;;;;;;;;;2097678;28;20245;-52
2021/04/18 01:05:59;;;;;;;10.93;9.33;;;;;;;;;;2090490;28;20653;-51
2021/04/18 01:06:59;;;;;;;14.23;11.17;;;;;;;;;;2088552;28;20194;-52
2021/04/18 01:08:01;;;;;;;12.50;9.23;;;;;;;;;;2096472;28;20186;-52
2021/04/18 01:09:02;;;;;;;12.77;9.70;;;;;;;;;;2088525;28;20178;-53
2021/04/18 01:10:03;;;;;;;10.40;9.30;;;;;;;;;;2097705;28;20159;-56
2021/04/18 01:11:04;;;;;;;12.53;9.77;;;;;;;;;;2097817;28;20543;-56
2021/04/18 01:12:04;;;;;;;13.20;10.05;;;;;;;;;;2098354;28;20190;-56
2021/04/18 01:13:07;;;;;;;15.67;11.03;;;;;;;;;;2096795;28;20178;-54
2021/04/18 01:14:07;;;;;;;11.87;9.93;;;;;;;;;;2097098;28;20187;-55
2021/04/18 01:15:08;;;;;;;11.27;10.17;;;;;;;;;;2096551;28;20163;-53
2021/04/18 01:16:09;;;;;;;13.70;9.63;;;;;;;;;;2097712;28;20206;-57
2021/04/18 01:17:10;;;;;;;12.30;9.73;;;;;;;;;;2096842;28;20189;-54
2021/04/18 01:18:11;;;;;;;13.20;9.63;;;;;;;;;;2088169;28;20191;-53
2021/04/18 01:19:11;;;;;;;11.73;9.47;;;;;;;;;;2096337;28;20177;-55
2021/04/18 01:20:15;;;;;;;11.52;9.93;;;;;;;;;;2096761;28;20207;-56
2021/04/18 01:21:16;;;;;;;18.77;10.73;;;;;;;;;;2088823;28;20171;-56
2021/04/18 01:22:22;;;;;;;11.40;10.17;;;;;;;;;;2094382;28;20159;-53
2021/04/18 01:23:41;;;;;;;11.52;9.20;;;;;;;;;;2094174;28;20187;-56
2021/04/18 01:24:57;;;;;;;11.80;9.60;;;;;;;;;;2095829;28;20236;-55
2021/04/18 01:26:11;;;;;;;14.57;10.00;;;;;;;;;;2092061;28;20151;-57
2021/04/18 01:27:15;;;;;;;14.23;10.40;;;;;;;;;;2094856;28;20239;-54
2021/04/18 01:28:15;;;;;;;11.40;9.97;;;;;;;;;;2088116;28;20648;-54
2021/04/18 01:29:16;;;;;;;11.43;9.30;;;;;;;;;;2088629;28;20175;-55
2021/04/18 01:30:21;;;;;;;10.43;9.18;;;;;;;;;;2099587;28;20563;-52
2021/04/18 01:31:21;;;;;;;13.17;9.50;;;;;;;;;;2103982;28;20174;-55
2021/04/18 01:32:22;;;;;;;12.10;9.70;;;;;;;;;;2096760;28;20206;-54
2021/04/18 01:33:22;;;;;;;14.80;10.10;;;;;;;;;;2092610;28;20683;-55
2021/04/18 01:34:22;;;;;;;11.93;10.13;;;;;;;;;;2097029;28;20228;-55
2021/04/18 01:35:24;;;;;;;13.60;9.60;;;;;;;;;;2095973;28;20748;-54
2021/04/18 01:36:24;;;;;;;14.23;10.27;;;;;;;;;;2096588;28;20204;-55
2021/04/18 01:37:24;;;;;;;12.13;9.70;;;;;;;;;;2095730;28;20202;-52
2021/04/18 01:38:25;;;;;;;11.02;9.13;;;;;;;;;;2095360;28;20248;-57
2021/04/18 01:39:25;;;;;;;11.37;9.57;;;;;;;;;;2097638;28;20531;-53
2021/04/18 01:40:26;;;;;;;10.82;9.73;;;;;;;;;;2095632;28;20214;-56
2021/04/18 01:41:27;;;;;;;13.17;9.63;;;;;;;;;;2094101;28;20633;-55
2021/04/18 01:42:27;;;;;;;11.20;9.37;;;;;;;;;;2103095;28;20169;-50
2021/04/18 01:43:27;;;;;;;15.27;10.13;;;;;;;;;;2095660;28;20306;-55
2021/04/18 01:44:28;;;;;;;12.10;10.10;;;;;;;;;;2096876;28;20162;-51
2021/04/18 01:45:28;;;;;;;10.97;9.53;;;;;;;;;;2098027;28;20202;-52
2021/04/18 01:46:31;;;;;;;12.87;10.10;;;;;;;;;;2098831;28;20171;-54
2021/04/18 01:47:32;;;;;;;11.98;9.20;;;;;;;;;;2098585;28;20167;-52
2021/04/18 01:48:34;;;;;;;10.17;9.03;;;;;;;;;;2085624;28;20274;-57
2021/04/18 01:49:34;;;;;;;11.87;9.23;;;;;;;;;;2098892;28;20260;-52
2021/04/18 01:50:48;;;;;;;12.13;10.27;;;;;;;;;;2098002;28;20696;-51
2021/04/18 01:51:50;;;;;;;13.23;9.95;;;;;;;;;;2098034;28;20182;-52
2021/04/18 01:52:52;;;;;;;11.38;9.32;;;;;;;;;;2098963;28;20175;-53
2021/04/18 01:53:52;;;;;;;10.07;9.07;;;;;;;;;;2103823;28;20250;-54
2021/04/18 01:54:53;;;;;;;13.13;10.10;;;;;;;;;;2099099;28;20163;-55
2021/04/18 01:55:53;;;;;;;10.65;9.60;;;;;;;;;;2098342;28;20190;-52
2021/04/18 01:56:55;;;;;;;19.30;10.18;;;;;;;;;;2098853;28;20179;-54
2021/04/18 01:57:57;;;;;;;11.93;10.17;;;;;;;;;;2098339;28;20167;-56
2021/04/18 01:59:12;;;;;;;14.27;9.77;;;;;;;;;;2096632;28;20241;-56
2021/04/18 02:00:28;;;;;;;11.33;9.20;;;;;;;;;;2098697;28;20258;-55
2021/04/18 02:01:36;;;;;;;14.43;10.13;;;;;;;;;;2098338;28;20175;-52
2021/04/18 02:02:36;;;;;;;15.45;9.85;;;;;;;;;;2089814;28;20384;-53
2021/04/18 02:03:42;;;;;;;16.53;9.70;;;;;;;;;;2096595;28;20151;-53
2021/04/18 02:04:44;;;;;;;14.77;9.57;;;;;;;;;;2105984;28;20658;-55
2021/04/18 02:05:44;;;;;;;10.33;9.27;;;;;;;;;;2105140;28;20250;-54
2021/04/18 02:06:54;;;;;;;13.32;10.13;;;;;;;;;;2092256;28;20164;-57
2021/04/18 02:07:54;;;;;;;13.40;9.67;;;;;;;;;;2089214;28;20222;-54
2021/04/18 02:08:55;;;;;;;12.10;9.70;;;;;;;;;;2095430;28;20629;-55
2021/04/18 02:10:03;;;;;;;12.63;10.27;;;;;;;;;;2097604;28;20258;-53
2021/04/18 02:11:05;;;;;;;10.43;9.40;;;;;;;;;;2097714;28;20159;-56
2021/04/18 02:12:06;;;;;;;14.52;10.13;;;;;;;;;;2097051;28;20583;-52
2021/04/18 02:13:08;;;;;;;11.23;9.83;;;;;;;;;;2098423;28;20175;-55
2021/04/18 02:14:27;;;;;;;11.60;9.40;;;;;;;;;;2095639;28;20218;-52
2021/04/18 02:15:33;;;;;;;12.38;10.25;;;;;;;;;;2103006;28;20170;-54
2021/04/18 02:16:33;;;;;;;13.07;10.27;;;;;;;;;;2104666;28;20162;-52
2021/04/18 02:17:39;;;;;;;12.57;11.00;;;;;;;;;;2096535;28;20667;-53
2021/04/18 02:18:39;;;;;;;10.63;9.53;;;;;;;;;;2097683;28;20190;-53
2021/04/18 02:19:39;;;;;;;12.00;10.03;;;;;;;;;;2094011;28;20292;-53
2021/04/18 02:20:41;;;;;;;14.83;10.77;;;;;;;;;;2096929;28;20194;-53
2021/04/18 02:21:41;;;;;;;14.13;10.60;;;;;;;;;;2094835;28;20612;-55
2021/04/18 02:22:42;;;;;;;12.20;10.23;;;;;;;;;;2097503;28;20258;-55
2021/04/18 02:23:43;;;;;;;13.97;10.50;;;;;;;;;;2088873;28;20670;-53
2021/04/18 02:24:43;;;;;;;12.27;10.43;;;;;;;;;;2084685;28;20234;-54
2021/04/18 02:25:44;;;;;;;10.47;9.50;;;;;;;;;;2096669;28;20205;-53
2021/04/18 02:26:44;;;;;;;12.63;11.10;;;;;;;;;;2093417;28;20170;-52
2021/04/18 02:27:50;;;;;;;13.33;10.77;;;;;;;;;;2089747;28;20652;-54
2021/04/18 02:28:58;;;;;;;13.17;9.90;;;;;;;;;;2088117;28;20172;-55
2021/04/18 02:30:01;;;;;;;13.93;10.38;;;;;;;;;;2082367;28;20255;-53
2021/04/18 02:31:05;;;;;;;13.55;10.27;;;;;;;;;;2098051;28;20309;-55
2021/04/18 02:32:13;;;;;;;14.37;11.60;;;;;;;;;;2089448;28;20167;-57
2021/04/18 02:33:22;;;;;;;11.52;10.10;;;;;;;;;;2086915;28;20160;-54
2021/04/18 02:34:23;;;;;;;13.97;10.77;;;;;;;;;;2097865;28;20203;-55
2021/04/18 02:35:23;;;;;;;11.83;10.13;;;;;;;;;;2098353;28;20159;-54
2021/04/18 02:36:23;;;;;;;12.53;11.13;;;;;;;;;;2097092;28;20175;-56
2021/04/18 02:37:24;;;;;;;17.27;11.50;;;;;;;;;;2090796;28;20649;-54
2021/04/18 02:38:25;;;;;;;15.17;11.53;;;;;;;;;;2098022;28;20183;-53
2021/04/18 02:39:25;;;;;;;16.20;10.50;;;;;;;;;;2096351;28;20623;-55
2021/04/18 02:40:26;;;;;;;13.87;11.37;;;;;;;;;;2088973;28;20199;-57
2021/04/18 02:41:27;;;;;;;14.97;11.23;;;;;;;;;;2098197;28;20175;-55
2021/04/18 02:42:27;;;;;;;12.87;11.17;;;;;;;;;;2098286;28;20559;-53
2021/04/18 02:43:29;;;;;;;14.60;11.63;;;;;;;;;;2097602;28;20281;-54
2021/04/18 02:44:29;;;;;;;12.97;11.13;;;;;;;;;;2097224;28;20182;-54
2021/04/18 02:45:30;;;;;;;17.37;10.73;;;;;;;;;;2097461;28;20167;-56
2021/04/18 02:46:31;;;;;;;14.17;11.27;;;;;;;;;;2081331;28;20194;-53
2021/04/18 02:47:32;;;;;;;13.60;11.07;;;;;;;;;;2081553;28;20174;-56
2021/04/18 02:48:32;;;;;;;14.13;10.13;;;;;;;;;;2098110;28;20591;-56
2021/04/18 02:49:33;;;;;;;13.07;10.83;;;;;;;;;;2097019;28;20667;-55
2021/04/18 02:50:33;;;;;;;12.73;11.33;;;;;;;;;;2098259;28;20170;-53
2021/04/18 02:51:34;;;;;;;13.87;11.97;;;;;;;;;;2097841;28;20209;-53
2021/04/18 02:52:35;;;;;;;12.30;10.93;;;;;;;;;;2097143;28;20202;-54
2021/04/18 02:53:36;;;;;;;13.43;11.30;;;;;;;;;;2096680;28;20174;-53
2021/04/18 02:54:37;;;;;;;15.07;12.00;;;;;;;;;;2097572;28;20246;-56
2021/04/18 02:55:38;;;;;;;15.17;11.70;;;;;;;;;;2094919;28;20186;-57
2021/04/18 02:57:01;;;;;;;12.43;10.37;;;;;;;;;;2091787;28;20556;-57
2021/04/18 02:58:02;;;;;;;15.20;11.03;;;;;;;;;;2097876;28;20191;-54
2021/04/18 02:59:03;;;;;;;15.67;12.07;;;;;;;;;;2088355;28;20195;-58
2021/04/18 03:00:04;;;;;;;16.13;12.43;;;;;;;;;;2088970;28;20237;-54
2021/04/18 03:01:07;;;;;;;12.70;11.40;;;;;;;;;;2082130;28;20172;-54
2021/04/18 03:02:08;;;;;;;15.37;11.73;;;;;;;;;;2089381;28;20559;-54
2021/04/18 03:03:15;;;;;;;15.43;12.03;;;;;;;;;;2089994;28;20524;-55
2021/04/18 03:04:15;;;;;;;13.40;11.53;;;;;;;;;;2087674;28;20179;-55
2021/04/18 03:05:16;;;;;;;18.77;12.00;;;;;;;;;;2089007;28;20769;-54
2021/04/18 03:06:22;;;;;;;19.47;11.57;;;;;;;;;;2085806;28;20165;-54
2021/04/18 03:07:23;;;;;;;13.57;11.53;;;;;;;;;;2095053;28;20174;-54
2021/04/18 03:08:24;;;;;;;16.27;11.67;;;;;;;;;;2093952;28;20202;-56
2021/04/18 03:09:24;;;;;;;14.73;11.37;;;;;;;;;;2088637;28;20738;-55
2021/04/18 03:10:28;;;;;;;13.00;11.03;;;;;;;;;;2094777;28;20171;-54
2021/04/18 03:11:28;;;;;;;15.63;11.80;;;;;;;;;;2098697;28;20163;-54
2021/04/18 03:12:33;;;;;;;17.93;11.53;;;;;;;;;;2096695;28;20282;-52
2021/04/18 03:13:33;;;;;;;12.93;10.83;;;;;;;;;;2097368;28;20650;-54
2021/04/18 03:14:34;;;;;;;13.93;11.27;;;;;;;;;;2097798;28;20206;-54
2021/04/18 03:15:35;;;;;;;12.60;11.27;;;;;;;;;;2089355;28;20176;-55
2021/04/18 03:16:40;;;;;;;14.87;11.90;;;;;;;;;;2090126;28;20255;-54
2021/04/18 03:17:41;;;;;;;12.73;10.50;;;;;;;;;;2088307;28;20187;-53
2021/04/18 03:18:44;;;;;;;14.37;11.17;;;;;;;;;;2096613;28;20198;-55
2021/04/18 03:19:45;;;;;;;16.07;11.90;;;;;;;;;;2092750;28;20215;-52
2021/04/18 03:20:46;;;;;;;13.37;11.70;;;;;;;;;;2097584;28;20211;-54
2021/04/18 03:21:46;;;;;;;16.20;10.63;;;;;;;;;;2089264;28;20198;-54
2021/04/18 03:22:48;;;;;;;14.37;10.20;;;;;;;;;;2089249;28;20187;-55
2021/04/18 03:23:48;;;;;;;15.57;11.33;;;;;;;;;;2088249;28;20245;-56
2021/04/18 03:24:49;;;;;;;15.70;11.73;;;;;;;;;;2099698;28;20175;-56
2021/04/18 03:25:51;;;;;;;14.70;11.53;;;;;;;;;;2100282;28;20174;-52
2021/04/18 03:26:53;;;;;;;12.73;11.37;;;;;;;;;;2100124;28;20167;-52
2021/04/18 03:27:53;;;;;;;14.70;11.30;;;;;;;;;;2100173;28;20171;-54
2021/04/18 03:29:05;;;;;;;16.00;11.33;;;;;;;;;;2098835;28;20286;-55
2021/04/18 03:30:06;;;;;;;13.87;11.57;;;;;;;;;;2089733;28;20227;-54
2021/04/18 03:31:13;;;;;;;14.13;11.67;;;;;;;;;;2097989;28;20186;-54
2021/04/18 03:32:24;;;;;;;16.63;11.87;;;;;;;;;;2089754;28;20172;-54
2021/04/18 03:33:27;;;;;;;14.80;11.30;;;;;;;;;;2086843;28;20179;-52
2021/04/18 03:34:40;;;;;;;14.17;11.43;;;;;;;;;;2091595;28;20164;-54
2021/04/18 03:35:41;;;;;;;12.80;10.73;;;;;;;;;;2098286;28;20178;-54
2021/04/18 03:36:44;;;;;;;13.67;10.90;;;;;;;;;;2082387;28;20656;-56
2021/04/18 03:37:51;;;;;;;12.73;10.53;;;;;;;;;;2086575;28;20165;-52
2021/04/18 03:38:51;;;;;;;11.70;10.50;;;;;;;;;;2098749;28;20193;-54
2021/04/18 03:39:56;;;;;;;16.43;10.40;;;;;;;;;;2097999;28;20273;-55
2021/04/18 03:40:57;;;;;;;14.87;10.80;;;;;;;;;;2089676;28;20316;-53
2021/04/18 03:41:57;;;;;;;14.57;10.23;;;;;;;;;;2098094;28;20188;-55
2021/04/18 03:42:58;;;;;;;12.30;10.70;;;;;;;;;;2098691;28;20180;-55
2021/04/18 03:43:59;;;;;;;14.03;10.53;;;;;;;;;;2091119;28;20182;-54
2021/04/18 03:45:06;;;;;;;15.93;11.17;;;;;;;;;;2090683;28;20259;-54
2021/04/18 03:46:06;;;;;;;13.63;11.47;;;;;;;;;;2095449;28;20241;-52
2021/04/18 03:47:17;;;;;;;15.83;10.33;;;;;;;;;;2094703;28;20582;-56
2021/04/18 03:48:39;;;;;;;15.40;11.53;;;;;;;;;;2095807;28;20236;-55
2021/04/18 03:49:39;;;;;;;17.23;12.43;;;;;;;;;;2090782;28;20313;-54
2021/04/18 03:50:48;;;;;;;13.17;10.97;;;;;;;;;;2096874;28;20178;-55
2021/04/18 03:52:02;;;;;;;17.50;11.50;;;;;;;;;;2090003;28;20176;-53
2021/04/18 03:53:03;;;;;;;13.97;11.23;;;;;;;;;;2089095;28;20214;-55
2021/04/18 03:54:05;;;;;;;13.33;11.50;;;;;;;;;;2082929;28;20553;-55
2021/04/18 03:55:05;;;;;;;13.77;11.47;;;;;;;;;;2095510;28;20159;-53
2021/04/18 03:56:07;;;;;;;16.10;11.27;;;;;;;;;;2092816;28;20187;-54
2021/04/18 03:57:17;;;;;;;13.23;10.33;;;;;;;;;;2089300;28;20555;-54
2021/04/18 03:58:17;;;;;;;13.97;11.63;;;;;;;;;;2093043;28;20187;-51
2021/04/18 03:59:24;;;;;;;15.67;11.73;;;;;;;;;;2096702;28;20647;-53
2021/04/18 04:00:27;;;;;;;12.57;11.23;;;;;;;;;;2089564;28;20203;-53
2021/04/18 04:01:34;;;;;;;15.87;11.23;;;;;;;;;;2097263;28;20564;-55
2021/04/18 04:02:37;;;;;;;20.87;11.83;;;;;;;;;;2096690;28;20163;-52
2021/04/18 04:03:40;;;;;;;16.20;11.70;;;;;;;;;;2096473;28;20171;-55
2021/04/18 04:04:45;;;;;;;16.07;12.57;;;;;;;;;;2097357;28;20155;-52
2021/04/18 04:05:49;;;;;;;14.07;10.87;;;;;;;;;;2089399;28;20175;-55
2021/04/18 04:06:52;;;;;;;15.60;12.53;;;;;;;;;;2083671;28;20171;-56
2021/04/18 04:07:53;;;;;;;16.17;12.33;;;;;;;;;;2088926;28;20663;-54
2021/04/18 04:08:54;;;;;;;15.60;11.33;;;;;;;;;;2088815;28;20163;-54
2021/04/18 04:09:57;;;;;;;20.30;11.90;;;;;;;;;;2089542;28;20385;-53
2021/04/18 04:10:57;;;;;;;14.73;11.57;;;;;;;;;;2083119;28;20175;-56
2021/04/18 04:12:00;;;;;;;17.27;12.10;;;;;;;;;;2081077;28;20204;-55
2021/04/18 04:13:12;;;;;;;12.03;10.80;;;;;;;;;;2085646;28;20179;-54
2021/04/18 04:14:14;;;;;;;14.03;11.57;;;;;;;;;;2089808;28;20175;-56
2021/04/18 04:15:20;;;;;;;14.40;12.27;;;;;;;;;;2090340;28;20183;-56
2021/04/18 04:16:23;;;;;;;17.70;11.63;;;;;;;;;;2099251;28;20195;-56
2021/04/18 04:17:26;;;;;;;14.93;11.70;;;;;;;;;;2097625;28;20214;-54
2021/04/18 04:18:52;;;;;;;15.77;10.87;;;;;;;;;;2092387;28;20182;-57
2021/04/18 04:20:11;;;;;;;15.40;11.30;;;;;;;;;;2094563;28;20179;-53
2021/04/18 04:21:32;;;;;;;15.20;10.83;;;;;;;;;;2099765;28;20155;-56
2021/04/18 04:22:47;;;;;;;15.17;11.40;;;;;;;;;;2099152;28;20266;-56
2021/04/18 04:23:53;;;;;;;14.70;12.47;;;;;;;;;;2091365;28;20160;-53
2021/04/18 04:24:53;;;;;;;17.57;11.73;;;;;;;;;;2095820;28;20167;-53
2021/04/18 04:25:54;;;;;;;14.63;11.67;;;;;;;;;;2097668;28;20695;-53
2021/04/18 04:26:54;;;;;;;17.80;12.50;;;;;;;;;;2094325;28;20167;-55
2021/04/18 04:27:54;;;;;;;16.80;11.47;;;;;;;;;;2097775;28;20197;-54
2021/04/18 04:28:55;;;;;;;14.70;10.97;;;;;;;;;;2097888;28;20232;-56
2021/04/18 04:29:55;;;;;;;13.80;11.30;;;;;;;;;;2090067;28;20221;-53
2021/04/18 04:30:55;;;;;;;15.33;11.47;;;;;;;;;;2094913;28;20647;-52
2021/04/18 04:31:56;;;;;;;13.23;10.90;;;;;;;;;;2097095;28;20202;-52
2021/04/18 04:32:56;;;;;;;13.27;11.70;;;;;;;;;;2097853;28;20258;-51
2021/04/18 04:33:56;;;;;;;12.60;11.33;;;;;;;;;;2097746;28;20224;-56
2021/04/18 04:34:57;;;;;;;13.33;11.40;;;;;;;;;;2097543;28;20203;-55
2021/04/18 04:35:57;;;;;;;14.33;11.57;;;;;;;;;;2097912;28;20304;-56
2021/04/18 04:36:57;;;;;;;13.70;11.60;;;;;;;;;;2096520;28;20175;-57
2021/04/18 04:37:58;;;;;;;17.17;11.27;;;;;;;;;;2095048;28;20652;-53
2021/04/18 04:38:58;;;;;;;14.90;11.10;;;;;;;;;;2091600;28;20262;-55
2021/04/18 04:39:58;;;;;;;17.03;12.20;;;;;;;;;;2099352;28;20519;-54
2021/04/18 04:40:59;;;;;;;16.37;12.20;;;;;;;;;;2099817;28;20159;-56
2021/04/18 04:42:00;;;;;;;13.60;12.23;;;;;;;;;;2093306;28;20636;-58
2021/04/18 04:43:00;;;;;;;15.03;11.40;;;;;;;;;;2096899;28;20258;-52
2021/04/18 04:44:01;;;;;;;13.70;11.40;;;;;;;;;;2096656;28;20563;-51
2021/04/18 04:45:02;;;;;;;14.17;11.70;;;;;;;;;;2097293;28;20190;-52
2021/04/18 04:46:03;;;;;;;13.53;11.97;;;;;;;;;;2090763;28;20176;-57
2021/04/18 04:47:03;;;;;;;15.20;11.07;;;;;;;;;;2097274;28;20195;-54
2021/04/18 04:48:03;;;;;;;13.47;11.83;;;;;;;;;;2098381;28;20292;-56
2021/04/18 04:49:04;;;;;;;15.30;12.03;;;;;;;;;;2098642;28;20248;-58
2021/04/18 04:50:04;;;;;;;12.57;11.00;;;;;;;;;;2091263;28;20194;-58
2021/04/18 04:51:05;;;;;;;14.73;11.93;;;;;;;;;;2099588;28;20191;-53
2021/04/18 04:52:07;;;;;;;17.90;13.03;;;;;;;;;;2099235;28;20178;-54
2021/04/18 04:53:07;;;;;;;16.93;11.50;;;;;;;;;;2099405;28;20163;-52
2021/04/18 04:54:08;;;;;;;14.80;11.97;;;;;;;;;;2093546;28;20214;-55
2021/04/18 04:55:08;;;;;;;17.13;12.07;;;;;;;;;;2094887;28;20668;-53
2021/04/18 04:56:08;;;;;;;17.33;12.23;;;;;;;;;;2097500;28;20182;-55
2021/04/18 04:57:09;;;;;;;15.67;12.47;;;;;;;;;;2096821;28;20175;-53
2021/04/18 04:58:09;;;;;;;17.87;12.40;;;;;;;;;;2091938;28;20259;-52
2021/04/18 04:59:10;;;;;;;16.80;11.63;;;;;;;;;;2096286;28;20190;-52
2021/04/18 05:00:10;;;;;;;17.53;12.67;;;;;;;;;;2090634;28;20696;-52
2021/04/18 05:01:10;;;;;;;17.67;12.43;;;;;;;;;;2097987;28;20183;-54
2021/04/18 05:02:11;;;;;;;14.20;12.23;;;;;;;;;;2098081;28;20258;-54
2021/04/18 05:03:11;;;;;;;14.50;12.73;;;;;;;;;;2097084;28;20197;-53
2021/04/18 05:04:11;;;;;;;17.33;12.47;;;;;;;;;;2097826;28;20167;-53
2021/04/18 05:05:12;;;;;;;14.43;12.03;;;;;;;;;;2097798;28;20190;-54
2021/04/18 05:06:12;;;;;;;15.40;12.65;;;;;;;;;;2089617;28;20175;-53
2021/04/18 05:07:12;;;;;;;14.67;13.03;;;;;;;;;;2089762;28;20250;-51
2021/04/18 05:08:13;;;;;;;18.13;13.23;;;;;;;;;;2080553;28;20273;-56
2021/04/18 05:09:13;;;;;;;16.33;12.80;;;;;;;;;;2094997;23;20160;-54
2021/04/18 05:10:13;;;;;;;18.40;13.23;;;;;;;;;;2097294;28;20857;-59
2021/04/18 05:11:14;;;;;;;14.40;12.90;;;;;;;;;;2101196;28;20178;-60
2021/04/18 05:12:15;;;;;;;16.03;12.83;;;;;;;;;;2103668;28;20640;-58
2021/04/18 05:13:16;;;;;;;15.27;12.83;;;;;;;;;;2104559;28;20181;-56
2021/04/18 05:14:16;;;;;;;15.13;12.37;;;;;;;;;;2102314;28;20182;-57
2021/04/18 05:15:16;;;;;;;15.13;12.67;;;;;;;;;;2101404;28;20504;-54
2021/04/18 05:16:16;;;;;;;16.63;12.97;;;;;;;;;;2106763;28;20267;-56
2021/04/18 05:17:17;;;;;;;18.03;13.10;;;;;;;;;;2108043;28;20173;-58
2021/04/18 05:18:17;;;;;;;16.30;13.20;;;;;;;;;;2105627;28;20174;-58
2021/04/18 05:19:17;;;;;;;16.00;12.60;;;;;;;;;;2100018;28;20578;-56
2021/04/18 05:20:18;;;;;;;16.83;12.20;;;;;;;;;;2098682;28;20665;-59
2021/04/18 05:21:18;;;;;;;14.02;11.50;;;;;;;;;;2098962;28;20216;-58
2021/04/18 05:22:19;;;;;;;16.95;12.57;;;;;;;;;;2096449;28;20190;-61
2021/04/18 05:23:19;;;;;;;16.23;12.65;;;;;;;;;;2102525;28;20177;-58
2021/04/18 05:24:19;;;;;;;13.75;11.88;;;;;;;;;;2099308;28;20651;-57
2021/04/18 05:25:19;;;;;;;15.25;11.88;;;;;;;;;;2098912;28;20188;-60
2021/04/18 05:26:20;;;;;;;14.80;12.87;;;;;;;;;;2102197;28;20187;-58
2021/04/18 05:27:20;;;;;;;15.55;12.15;;;;;;;;;;2100644;28;20202;-57
2021/04/18 05:28:21;;;;;;;14.07;12.57;;;;;;;;;;2102385;28;20194;-58
2021/04/18 05:29:23;;;;;;;18.17;13.20;;;;;;;;;;2097959;28;20578;-55
2021/04/18 05:30:23;;;;;;;14.13;12.15;;;;;;;;;;2096859;28;20202;-56
2021/04/18 05:31:24;;;;;;;16.08;12.60;;;;;;;;;;2103035;28;20197;-55
2021/04/18 05:32:24;;;;;;;16.27;13.30;;;;;;;;;;2095462;28;20179;-59
2021/04/18 05:33:24;;;;;;;20.50;13.30;;;;;;;;;;2103360;28;20190;-57
2021/04/18 05:34:25;;;;;;;15.20;12.00;;;;;;;;;;2102806;28;20175;-59
2021/04/18 05:35:25;;;;;;;15.97;12.10;;;;;;;;;;2100626;28;20170;-57
2021/04/18 05:36:25;;;;;;;15.93;13.10;;;;;;;;;;2104300;28;20205;-60
2021/04/18 05:37:25;;;;;;;14.23;12.20;;;;;;;;;;2104965;28;20189;-56
2021/04/18 05:38:26;;;;;;;18.67;12.00;;;;;;;;;;2102126;28;20208;-59
2021/04/18 05:39:27;;;;;;;16.23;12.20;;;;;;;;;;2097391;28;20240;-58
2021/04/18 05:40:27;;;;;;;13.90;11.97;;;;;;;;;;2103137;28;20352;-57
2021/04/18 05:41:27;;;;;;;16.60;12.70;;;;;;;;;;2102873;28;20637;-62
2021/04/18 05:42:28;;;;;;;14.57;11.80;;;;;;;;;;2104055;28;20227;-58
2021/04/18 05:43:28;;;;;;;15.82;12.50;;;;;;;;;;2101339;28;20187;-62
2021/04/18 05:44:28;;;;;;;16.97;12.93;;;;;;;;;;2098816;28;20209;-60
2021/04/18 05:45:29;;;;;;;16.33;12.20;;;;;;;;;;2104769;28;20650;-57
2021/04/18 05:46:29;;;;;;;17.67;12.60;;;;;;;;;;2102680;28;20178;-58
2021/04/18 05:47:29;;;;;;;17.65;12.20;;;;;;;;;;2098142;28;20183;-60
2021/04/18 05:48:29;;;;;;;20.77;12.30;;;;;;;;;;2090409;28;20259;-59
2021/04/18 05:49:30;;;;;;;15.65;12.32;;;;;;;;;;2087663;28;20218;-60
2021/04/18 05:50:30;;;;;;;15.30;13.00;;;;;;;;;;2107224;28;20181;-60
2021/04/18 05:51:31;;;;;;;16.10;11.77;;;;;;;;;;2098153;28;20176;-59
2021/04/18 05:52:31;;;;;;;14.32;12.35;;;;;;;;;;2097549;28;20186;-57
2021/04/18 05:53:32;;;;;;;12.88;11.48;;;;;;;;;;2097485;28;20230;-59
2021/04/18 05:54:32;;;;;;;16.10;12.93;;;;;;;;;;2097695;28;20674;-59
2021/04/18 05:55:33;;;;;;;14.75;12.60;;;;;;;;;;2093499;28;20266;-61
2021/04/18 05:56:34;;;;;;;14.43;11.73;;;;;;;;;;2098174;28;20179;-58
2021/04/18 05:57:34;;;;;;;16.80;12.05;;;;;;;;;;2103321;28;20186;-58
2021/04/18 05:58:34;;;;;;;14.77;12.23;;;;;;;;;;2101325;28;20212;-59
2021/04/18 05:59:35;;;;;;;17.55;12.93;;;;;;;;;;2097731;28;20226;-58
2021/04/18 06:00:35;;;;;;;17.02;12.35;;;;;;;;;;2093964;28;20723;-60
2021/04/18 06:01:35;;;;;;;17.27;12.50;;;;;;;;;;2101123;28;20244;-60